This is the latest recevied weather packets stored in our database for station/object LRBC. If no packets are shown the sender has not sent any weather packets the latest 10 day(s).
| Time | Temp. | Humidity | Pressure | Rain* | Wind** | Luminosity | Snow |
|---|---|---|---|---|---|---|---|
| 1777453428 | 12.78° C | 33% | 1021 hPa | - | - | - | - |
| 1777452527 | 12.22° C | 35% | 1021 hPa | - | - | - | - |
| 1777451627 | 12.22° C | 35% | 1021 hPa | - | - | - | - |
| 1777450727 | 11.11° C | 38% | 1021 hPa | - | - | - | - |
| 1777449827 | 11.11° C | 38% | 1021 hPa | - | - | - | - |
| 1777448927 | 11.11° C | 41% | 1022 hPa | - | - | - | - |
| 1777448027 | 11.11° C | 41% | 1022 hPa | - | - | - | - |
| 1777447127 | 11.11° C | 41% | 1021 hPa | - | - | - | - |
| 1777446227 | 11.11° C | 41% | 1021 hPa | - | - | - | - |
| 1777445327 | 10° C | 47% | 1021 hPa | - | - | - | - |
| 1777444428 | 10° C | 47% | 1021 hPa | - | - | - | - |
| 1777443527 | 8.89° C | 46% | 1021 hPa | - | - | - | - |
| 1777442627 | 8.89° C | 46% | 1021 hPa | - | - | - | - |
| 1777441727 | 7.78° C | 46% | 1021 hPa | - | - | - | - |
| 1777440838 | 7.78° C | 46% | 1021 hPa | - | - | - | - |
| 1777439928 | 7.78° C | 50% | 1021 hPa | - | - | - | - |
| 1777439028 | 7.78° C | 50% | 1021 hPa | - | - | - | - |
| 1777438127 | 6.11° C | 66% | 1021 hPa | - | - | - | - |
| 1777437227 | 6.11° C | 66% | 1021 hPa | - | - | - | - |
| 1777436328 | 5° C | 66% | 1021 hPa | - | - | - | - |
| 1777435427 | 5° C | 66% | 1021 hPa | - | - | - | - |
| 1777434528 | 6.11° C | 57% | 1021 hPa | - | - | - | - |
| 1777433627 | 6.11° C | 57% | 1021 hPa | - | - | - | - |
| 1777432736 | 5° C | 57% | 1021 hPa | - | - | - | - |
| 1777431827 | 5° C | 57% | 1021 hPa | - | - | - | - |
* Rain since midnight (hover to see other rain measurements)
** Current wind speed in m/s (hover to see current wind gust speed)